sensor_id;sensor_type;location;lat;lon;timestamp;P1;durP1;ratioP1;P2;durP2;ratioP2
49626;SDS011;35527;54.616;39.786;2022-11-20T00:01:16;9.65;;;4.65;;
49626;SDS011;35527;54.616;39.786;2022-11-20T00:04:23;10.23;;;4.57;;
49626;SDS011;35527;54.616;39.786;2022-11-20T00:07:25;6.25;;;2.65;;
49626;SDS011;35527;54.616;39.786;2022-11-20T00:10:28;8.52;;;3.92;;
49626;SDS011;35527;54.616;39.786;2022-11-20T00:13:32;11.10;;;5.57;;
49626;SDS011;35527;54.616;39.786;2022-11-20T00:16:38;14.93;;;10.48;;
49626;SDS011;35527;54.616;39.786;2022-11-20T00:19:41;15.50;;;9.88;;
49626;SDS011;35527;54.616;39.786;2022-11-20T00:22:44;9.15;;;4.13;;
49626;SDS011;35527;54.616;39.786;2022-11-20T00:25:47;9.88;;;5.35;;
49626;SDS011;35527;54.616;39.786;2022-11-20T00:28:52;9.75;;;3.97;;
49626;SDS011;35527;54.616;39.786;2022-11-20T00:31:56;11.55;;;4.78;;
49626;SDS011;35527;54.616;39.786;2022-11-20T00:35:01;9.73;;;4.40;;
49626;SDS011;35527;54.616;39.786;2022-11-20T00:38:06;8.20;;;4.10;;
49626;SDS011;35527;54.616;39.786;2022-11-20T00:41:12;11.65;;;4.82;;
49626;SDS011;35527;54.616;39.786;2022-11-20T00:44:18;17.15;;;10.82;;
49626;SDS011;35527;54.616;39.786;2022-11-20T00:47:20;11.55;;;4.97;;
49626;SDS011;35527;54.616;39.786;2022-11-20T00:50:23;10.88;;;4.63;;
49626;SDS011;35527;54.616;39.786;2022-11-20T00:53:28;10.75;;;4.60;;
49626;SDS011;35527;54.616;39.786;2022-11-20T00:56:30;10.80;;;5.20;;
49626;SDS011;35527;54.616;39.786;2022-11-20T00:59:35;10.55;;;4.53;;
49626;SDS011;35527;54.616;39.786;2022-11-20T01:02:39;9.25;;;4.07;;
49626;SDS011;35527;54.616;39.786;2022-11-20T01:05:44;12.27;;;5.53;;
49626;SDS011;35527;54.616;39.786;2022-11-20T01:08:48;9.90;;;4.70;;
49626;SDS011;35527;54.616;39.786;2022-11-20T01:11:52;16.00;;;10.63;;
49626;SDS011;35527;54.616;39.786;2022-11-20T01:14:55;10.98;;;4.75;;
49626;SDS011;35527;54.616;39.786;2022-11-20T01:18:02;10.57;;;4.68;;
49626;SDS011;35527;54.616;39.786;2022-11-20T01:21:09;17.10;;;11.10;;
49626;SDS011;35527;54.616;39.786;2022-11-20T01:24:14;15.48;;;10.05;;
49626;SDS011;35527;54.616;39.786;2022-11-20T01:27:21;15.57;;;11.07;;
49626;SDS011;35527;54.616;39.786;2022-11-20T01:30:26;15.63;;;10.60;;
49626;SDS011;35527;54.616;39.786;2022-11-20T01:33:28;9.07;;;4.32;;
49626;SDS011;35527;54.616;39.786;2022-11-20T01:36:31;13.27;;;5.30;;
49626;SDS011;35527;54.616;39.786;2022-11-20T01:39:35;11.85;;;5.40;;
49626;SDS011;35527;54.616;39.786;2022-11-20T01:42:43;11.57;;;5.20;;
49626;SDS011;35527;54.616;39.786;2022-11-20T01:46:19;10.60;;;4.75;;
49626;SDS011;35527;54.616;39.786;2022-11-20T01:49:24;12.05;;;4.97;;
49626;SDS011;35527;54.616;39.786;2022-11-20T01:52:53;11.48;;;5.15;;
49626;SDS011;35527;54.616;39.786;2022-11-20T01:56:01;10.52;;;4.70;;
49626;SDS011;35527;54.616;39.786;2022-11-20T01:59:07;10.20;;;4.78;;
49626;SDS011;35527;54.616;39.786;2022-11-20T02:02:13;14.48;;;9.82;;
49626;SDS011;35527;54.616;39.786;2022-11-20T02:05:25;10.38;;;4.82;;
49626;SDS011;35527;54.616;39.786;2022-11-20T02:08:34;10.65;;;4.63;;
49626;SDS011;35527;54.616;39.786;2022-11-20T02:11:41;9.35;;;4.47;;
49626;SDS011;35527;54.616;39.786;2022-11-20T02:14:45;10.45;;;4.82;;
49626;SDS011;35527;54.616;39.786;2022-11-20T02:18:17;11.32;;;4.70;;
49626;SDS011;35527;54.616;39.786;2022-11-20T02:21:33;15.57;;;10.57;;
49626;SDS011;35527;54.616;39.786;2022-11-20T02:24:37;15.25;;;10.68;;
49626;SDS011;35527;54.616;39.786;2022-11-20T02:27:43;12.50;;;4.88;;
49626;SDS011;35527;54.616;39.786;2022-11-20T02:30:46;13.07;;;4.63;;
49626;SDS011;35527;54.616;39.786;2022-11-20T02:33:54;10.10;;;4.38;;
49626;SDS011;35527;54.616;39.786;2022-11-20T02:36:58;10.18;;;4.60;;
49626;SDS011;35527;54.616;39.786;2022-11-20T02:40:03;11.27;;;4.57;;
49626;SDS011;35527;54.616;39.786;2022-11-20T02:43:06;10.18;;;4.75;;
49626;SDS011;35527;54.616;39.786;2022-11-20T02:46:09;9.35;;;4.18;;
49626;SDS011;35527;54.616;39.786;2022-11-20T02:49:12;14.55;;;9.55;;
49626;SDS011;35527;54.616;39.786;2022-11-20T02:52:14;12.02;;;8.95;;
49626;SDS011;35527;54.616;39.786;2022-11-20T02:55:19;11.67;;;5.93;;
49626;SDS011;35527;54.616;39.786;2022-11-20T02:58:25;13.73;;;9.37;;
49626;SDS011;35527;54.616;39.786;2022-11-20T03:01:29;11.63;;;4.27;;
49626;SDS011;35527;54.616;39.786;2022-11-20T03:04:33;10.10;;;4.57;;
49626;SDS011;35527;54.616;39.786;2022-11-20T03:07:36;10.80;;;4.72;;
49626;SDS011;35527;54.616;39.786;2022-11-20T03:10:40;13.23;;;9.77;;
49626;SDS011;35527;54.616;39.786;2022-11-20T03:13:43;12.55;;;9.05;;
49626;SDS011;35527;54.616;39.786;2022-11-20T03:16:47;11.90;;;4.38;;
49626;SDS011;35527;54.616;39.786;2022-11-20T03:19:51;10.33;;;4.27;;
49626;SDS011;35527;54.616;39.786;2022-11-20T03:22:58;10.77;;;4.68;;
49626;SDS011;35527;54.616;39.786;2022-11-20T03:26:13;13.35;;;5.53;;
49626;SDS011;35527;54.616;39.786;2022-11-20T03:29:28;8.93;;;4.03;;
49626;SDS011;35527;54.616;39.786;2022-11-20T03:32:56;10.35;;;4.78;;
49626;SDS011;35527;54.616;39.786;2022-11-20T03:36:05;13.52;;;9.73;;
49626;SDS011;35527;54.616;39.786;2022-11-20T03:39:10;12.05;;;4.53;;
49626;SDS011;35527;54.616;39.786;2022-11-20T03:42:13;13.77;;;9.32;;
49626;SDS011;35527;54.616;39.786;2022-11-20T03:45:42;12.90;;;5.00;;
49626;SDS011;35527;54.616;39.786;2022-11-20T03:48:51;9.77;;;4.55;;
49626;SDS011;35527;54.616;39.786;2022-11-20T03:51:55;12.45;;;5.22;;
49626;SDS011;35527;54.616;39.786;2022-11-20T03:54:57;9.40;;;4.57;;
49626;SDS011;35527;54.616;39.786;2022-11-20T03:58:01;10.90;;;8.63;;
49626;SDS011;35527;54.616;39.786;2022-11-20T04:01:05;13.43;;;9.75;;
49626;SDS011;35527;54.616;39.786;2022-11-20T04:04:18;9.10;;;4.47;;
49626;SDS011;35527;54.616;39.786;2022-11-20T04:07:23;10.52;;;4.32;;
49626;SDS011;35527;54.616;39.786;2022-11-20T04:10:27;9.93;;;4.88;;
49626;SDS011;35527;54.616;39.786;2022-11-20T04:13:35;11.65;;;4.78;;
49626;SDS011;35527;54.616;39.786;2022-11-20T04:16:38;9.63;;;4.20;;
49626;SDS011;35527;54.616;39.786;2022-11-20T04:19:43;9.43;;;4.47;;
49626;SDS011;35527;54.616;39.786;2022-11-20T04:22:47;13.17;;;9.73;;
49626;SDS011;35527;54.616;39.786;2022-11-20T04:25:50;10.52;;;4.90;;
49626;SDS011;35527;54.616;39.786;2022-11-20T04:28:54;10.05;;;4.47;;
49626;SDS011;35527;54.616;39.786;2022-11-20T04:31:56;9.68;;;4.70;;
49626;SDS011;35527;54.616;39.786;2022-11-20T04:35:03;11.18;;;5.10;;
49626;SDS011;35527;54.616;39.786;2022-11-20T04:38:10;9.60;;;4.55;;
49626;SDS011;35527;54.616;39.786;2022-11-20T04:41:17;12.02;;;9.10;;
49626;SDS011;35527;54.616;39.786;2022-11-20T04:44:22;14.07;;;4.82;;
49626;SDS011;35527;54.616;39.786;2022-11-20T04:47:27;8.30;;;4.03;;
49626;SDS011;35527;54.616;39.786;2022-11-20T04:50:34;9.20;;;4.97;;
49626;SDS011;35527;54.616;39.786;2022-11-20T04:53:36;13.00;;;9.52;;
49626;SDS011;35527;54.616;39.786;2022-11-20T05:00:15;9.95;;;4.55;;
49626;SDS011;35527;54.616;39.786;2022-11-20T05:03:18;9.98;;;4.30;;
49626;SDS011;35527;54.616;39.786;2022-11-20T05:06:25;11.05;;;4.82;;
49626;SDS011;35527;54.616;39.786;2022-11-20T05:09:52;10.43;;;4.57;;
49626;SDS011;35527;54.616;39.786;2022-11-20T05:13:19;9.98;;;4.43;;
49626;SDS011;35527;54.616;39.786;2022-11-20T05:16:24;11.40;;;5.18;;
49626;SDS011;35527;54.616;39.786;2022-11-20T05:19:27;9.10;;;4.35;;
49626;SDS011;35527;54.616;39.786;2022-11-20T05:22:31;10.23;;;4.93;;
49626;SDS011;35527;54.616;39.786;2022-11-20T05:25:39;9.98;;;4.95;;
49626;SDS011;35527;54.616;39.786;2022-11-20T05:28:44;9.25;;;4.60;;
49626;SDS011;35527;54.616;39.786;2022-11-20T05:31:49;12.30;;;9.98;;
49626;SDS011;35527;54.616;39.786;2022-11-20T05:34:52;10.57;;;4.63;;
49626;SDS011;35527;54.616;39.786;2022-11-20T05:37:55;11.27;;;8.90;;
49626;SDS011;35527;54.616;39.786;2022-11-20T05:41:02;9.18;;;4.43;;
49626;SDS011;35527;54.616;39.786;2022-11-20T05:44:11;9.95;;;4.05;;
49626;SDS011;35527;54.616;39.786;2022-11-20T05:47:14;9.18;;;4.40;;
49626;SDS011;35527;54.616;39.786;2022-11-20T05:50:17;8.95;;;4.10;;
49626;SDS011;35527;54.616;39.786;2022-11-20T05:53:22;10.55;;;4.47;;
49626;SDS011;35527;54.616;39.786;2022-11-20T05:56:26;9.77;;;4.40;;
49626;SDS011;35527;54.616;39.786;2022-11-20T05:59:32;8.90;;;4.60;;
49626;SDS011;35527;54.616;39.786;2022-11-20T06:02:40;9.52;;;4.30;;
49626;SDS011;35527;54.616;39.786;2022-11-20T06:05:44;9.15;;;4.15;;
49626;SDS011;35527;54.616;39.786;2022-11-20T06:08:47;11.45;;;8.63;;
49626;SDS011;35527;54.616;39.786;2022-11-20T06:11:52;10.63;;;8.63;;
49626;SDS011;35527;54.616;39.786;2022-11-20T06:14:56;14.23;;;8.95;;
49626;SDS011;35527;54.616;39.786;2022-11-20T06:18:05;14.02;;;9.30;;
49626;SDS011;35527;54.616;39.786;2022-11-20T06:21:09;11.10;;;4.78;;
49626;SDS011;35527;54.616;39.786;2022-11-20T06:24:15;9.60;;;4.00;;
49626;SDS011;35527;54.616;39.786;2022-11-20T06:27:20;10.38;;;8.25;;
49626;SDS011;35527;54.616;39.786;2022-11-20T06:30:24;10.00;;;4.72;;
49626;SDS011;35527;54.616;39.786;2022-11-20T06:33:30;8.38;;;3.53;;
49626;SDS011;35527;54.616;39.786;2022-11-20T06:36:35;10.45;;;4.57;;
49626;SDS011;35527;54.616;39.786;2022-11-20T06:39:37;9.73;;;4.30;;
49626;SDS011;35527;54.616;39.786;2022-11-20T06:42:41;8.40;;;3.95;;
49626;SDS011;35527;54.616;39.786;2022-11-20T06:45:43;11.43;;;4.50;;
49626;SDS011;35527;54.616;39.786;2022-11-20T06:48:48;12.80;;;8.52;;
49626;SDS011;35527;54.616;39.786;2022-11-20T06:51:53;12.77;;;9.05;;
49626;SDS011;35527;54.616;39.786;2022-11-20T06:54:57;12.75;;;9.25;;
49626;SDS011;35527;54.616;39.786;2022-11-20T06:58:00;10.85;;;4.72;;
49626;SDS011;35527;54.616;39.786;2022-11-20T07:01:05;11.25;;;4.80;;
49626;SDS011;35527;54.616;39.786;2022-11-20T07:04:10;9.40;;;5.13;;
49626;SDS011;35527;54.616;39.786;2022-11-20T07:07:18;10.10;;;4.55;;
49626;SDS011;35527;54.616;39.786;2022-11-20T07:10:25;10.05;;;5.07;;
49626;SDS011;35527;54.616;39.786;2022-11-20T07:13:33;9.40;;;4.75;;
49626;SDS011;35527;54.616;39.786;2022-11-20T07:16:36;13.55;;;10.00;;
49626;SDS011;35527;54.616;39.786;2022-11-20T07:19:40;12.60;;;9.65;;
49626;SDS011;35527;54.616;39.786;2022-11-20T07:22:42;10.25;;;4.50;;
49626;SDS011;35527;54.616;39.786;2022-11-20T07:25:46;11.88;;;4.82;;
49626;SDS011;35527;54.616;39.786;2022-11-20T07:28:49;9.82;;;4.43;;
49626;SDS011;35527;54.616;39.786;2022-11-20T07:31:56;12.02;;;4.95;;
49626;SDS011;35527;54.616;39.786;2022-11-20T07:34:58;7.40;;;3.67;;
49626;SDS011;35527;54.616;39.786;2022-11-20T07:38:01;11.13;;;4.32;;
49626;SDS011;35527;54.616;39.786;2022-11-20T07:41:05;9.60;;;4.25;;
49626;SDS011;35527;54.616;39.786;2022-11-20T07:44:09;9.95;;;4.43;;
49626;SDS011;35527;54.616;39.786;2022-11-20T07:47:13;12.07;;;4.47;;
49626;SDS011;35527;54.616;39.786;2022-11-20T07:50:16;8.70;;;4.28;;
49626;SDS011;35527;54.616;39.786;2022-11-20T07:53:19;12.00;;;8.90;;
49626;SDS011;35527;54.616;39.786;2022-11-20T07:56:25;12.60;;;8.38;;
49626;SDS011;35527;54.616;39.786;2022-11-20T08:02:38;11.38;;;8.23;;
49626;SDS011;35527;54.616;39.786;2022-11-20T08:05:44;10.98;;;7.70;;
49626;SDS011;35527;54.616;39.786;2022-11-20T08:08:48;13.60;;;5.00;;
49626;SDS011;35527;54.616;39.786;2022-11-20T08:11:51;11.10;;;6.28;;
49626;SDS011;35527;54.616;39.786;2022-11-20T08:15:14;10.98;;;5.85;;
49626;SDS011;35527;54.616;39.786;2022-11-20T08:18:17;11.40;;;6.03;;
49626;SDS011;35527;54.616;39.786;2022-11-20T08:21:37;13.18;;;10.45;;
49626;SDS011;35527;54.616;39.786;2022-11-20T08:24:40;11.93;;;4.65;;
49626;SDS011;35527;54.616;39.786;2022-11-20T08:30:50;10.48;;;5.15;;
49626;SDS011;35527;54.616;39.786;2022-11-20T08:33:55;12.45;;;9.27;;
49626;SDS011;35527;54.616;39.786;2022-11-20T08:36:57;14.50;;;9.93;;
49626;SDS011;35527;54.616;39.786;2022-11-20T08:40:03;10.73;;;5.22;;
49626;SDS011;35527;54.616;39.786;2022-11-20T08:43:10;12.30;;;5.53;;
49626;SDS011;35527;54.616;39.786;2022-11-20T08:46:16;14.20;;;5.38;;
49626;SDS011;35527;54.616;39.786;2022-11-20T08:49:19;13.80;;;10.77;;
49626;SDS011;35527;54.616;39.786;2022-11-20T08:52:24;14.13;;;10.80;;
49626;SDS011;35527;54.616;39.786;2022-11-20T08:55:30;11.70;;;5.32;;
49626;SDS011;35527;54.616;39.786;2022-11-20T08:58:33;17.10;;;6.15;;
49626;SDS011;35527;54.616;39.786;2022-11-20T09:01:45;10.43;;;5.30;;
49626;SDS011;35527;54.616;39.786;2022-11-20T09:04:48;13.70;;;6.32;;
49626;SDS011;35527;54.616;39.786;2022-11-20T09:07:58;12.02;;;6.03;;
49626;SDS011;35527;54.616;39.786;2022-11-20T09:11:56;16.45;;;5.55;;
49626;SDS011;35527;54.616;39.786;2022-11-20T09:15:08;13.75;;;5.72;;
49626;SDS011;35527;54.616;39.786;2022-11-20T09:18:13;13.83;;;7.00;;
49626;SDS011;35527;54.616;39.786;2022-11-20T09:21:15;19.33;;;8.23;;
49626;SDS011;35527;54.616;39.786;2022-11-20T09:24:19;17.50;;;9.52;;
49626;SDS011;35527;54.616;39.786;2022-11-20T09:27:25;19.38;;;9.18;;
49626;SDS011;35527;54.616;39.786;2022-11-20T09:30:37;31.40;;;20.15;;
49626;SDS011;35527;54.616;39.786;2022-11-20T09:33:41;17.33;;;8.15;;
49626;SDS011;35527;54.616;39.786;2022-11-20T09:36:46;19.95;;;8.90;;
49626;SDS011;35527;54.616;39.786;2022-11-20T09:39:50;24.35;;;16.77;;
49626;SDS011;35527;54.616;39.786;2022-11-20T09:43:03;18.55;;;8.48;;
49626;SDS011;35527;54.616;39.786;2022-11-20T09:46:21;25.48;;;17.83;;
49626;SDS011;35527;54.616;39.786;2022-11-20T09:54:00;23.38;;;8.80;;
49626;SDS011;35527;54.616;39.786;2022-11-20T09:57:14;19.13;;;8.35;;
49626;SDS011;35527;54.616;39.786;2022-11-20T10:00:27;33.65;;;21.73;;
49626;SDS011;35527;54.616;39.786;2022-11-20T10:03:50;17.92;;;8.80;;
49626;SDS011;35527;54.616;39.786;2022-11-20T10:07:06;21.67;;;8.60;;
49626;SDS011;35527;54.616;39.786;2022-11-20T10:10:35;18.70;;;8.43;;
49626;SDS011;35527;54.616;39.786;2022-11-20T10:30:26;20.02;;;7.95;;
49626;SDS011;35527;54.616;39.786;2022-11-20T10:33:24;16.27;;;7.18;;
49626;SDS011;35527;54.616;39.786;2022-11-20T10:36:38;17.50;;;7.65;;
49626;SDS011;35527;54.616;39.786;2022-11-20T10:39:59;16.83;;;7.32;;
49626;SDS011;35527;54.616;39.786;2022-11-20T10:46:18;13.10;;;6.65;;
49626;SDS011;35527;54.616;39.786;2022-11-20T10:49:26;19.63;;;8.40;;
49626;SDS011;35527;54.616;39.786;2022-11-20T10:56:00;15.68;;;6.72;;
49626;SDS011;35527;54.616;39.786;2022-11-20T11:02:49;14.52;;;7.00;;
49626;SDS011;35527;54.616;39.786;2022-11-20T11:05:56;16.77;;;11.73;;
49626;SDS011;35527;54.616;39.786;2022-11-20T11:09:15;20.33;;;12.85;;
49626;SDS011;35527;54.616;39.786;2022-11-20T11:12:26;13.02;;;5.53;;
49626;SDS011;35527;54.616;39.786;2022-11-20T11:15:38;13.80;;;6.00;;
49626;SDS011;35527;54.616;39.786;2022-11-20T11:18:43;17.38;;;7.47;;
49626;SDS011;35527;54.616;39.786;2022-11-20T11:21:53;17.58;;;7.47;;
49626;SDS011;35527;54.616;39.786;2022-11-20T11:24:59;17.33;;;6.95;;
49626;SDS011;35527;54.616;39.786;2022-11-20T11:31:22;20.05;;;13.93;;
49626;SDS011;35527;54.616;39.786;2022-11-20T11:34:26;20.73;;;14.43;;
49626;SDS011;35527;54.616;39.786;2022-11-20T11:37:34;15.60;;;7.45;;
49626;SDS011;35527;54.616;39.786;2022-11-20T11:40:39;17.85;;;7.53;;
49626;SDS011;35527;54.616;39.786;2022-11-20T11:44:31;19.73;;;8.05;;
49626;SDS011;35527;54.616;39.786;2022-11-20T11:47:36;16.67;;;7.68;;
49626;SDS011;35527;54.616;39.786;2022-11-20T11:50:51;20.48;;;14.23;;
49626;SDS011;35527;54.616;39.786;2022-11-20T11:53:54;16.45;;;6.47;;
49626;SDS011;35527;54.616;39.786;2022-11-20T11:57:05;15.90;;;7.38;;
49626;SDS011;35527;54.616;39.786;2022-11-20T12:00:52;16.80;;;6.95;;
49626;SDS011;35527;54.616;39.786;2022-11-20T12:04:43;12.85;;;5.43;;
49626;SDS011;35527;54.616;39.786;2022-11-20T12:07:55;13.43;;;6.28;;
49626;SDS011;35527;54.616;39.786;2022-11-20T12:14:38;15.88;;;7.80;;
49626;SDS011;35527;54.616;39.786;2022-11-20T12:17:47;20.75;;;14.02;;
49626;SDS011;35527;54.616;39.786;2022-11-20T12:20:56;15.30;;;5.97;;
49626;SDS011;35527;54.616;39.786;2022-11-20T12:35:04;20.60;;;13.75;;
49626;SDS011;35527;54.616;39.786;2022-11-20T12:41:46;13.18;;;5.50;;
49626;SDS011;35527;54.616;39.786;2022-11-20T12:51:45;13.88;;;5.57;;
49626;SDS011;35527;54.616;39.786;2022-11-20T12:58:27;19.98;;;12.77;;
49626;SDS011;35527;54.616;39.786;2022-11-20T13:01:58;21.27;;;13.57;;
49626;SDS011;35527;54.616;39.786;2022-11-20T13:05:36;18.67;;;6.47;;
49626;SDS011;35527;54.616;39.786;2022-11-20T13:08:55;16.52;;;7.05;;
49626;SDS011;35527;54.616;39.786;2022-11-20T13:15:41;21.65;;;13.80;;
49626;SDS011;35527;54.616;39.786;2022-11-20T13:18:51;18.55;;;7.68;;
49626;SDS011;35527;54.616;39.786;2022-11-20T13:21:54;17.30;;;6.60;;
49626;SDS011;35527;54.616;39.786;2022-11-20T13:25:01;15.52;;;6.57;;
49626;SDS011;35527;54.616;39.786;2022-11-20T13:28:05;14.82;;;6.82;;
49626;SDS011;35527;54.616;39.786;2022-11-20T13:31:34;18.42;;;7.15;;
49626;SDS011;35527;54.616;39.786;2022-11-20T13:34:50;13.10;;;6.28;;
49626;SDS011;35527;54.616;39.786;2022-11-20T13:41:04;15.73;;;6.05;;
49626;SDS011;35527;54.616;39.786;2022-11-20T13:44:33;17.55;;;7.82;;
49626;SDS011;35527;54.616;39.786;2022-11-20T13:47:46;15.30;;;6.60;;
49626;SDS011;35527;54.616;39.786;2022-11-20T14:00:33;18.15;;;7.00;;
49626;SDS011;35527;54.616;39.786;2022-11-20T14:03:48;19.42;;;8.45;;
49626;SDS011;35527;54.616;39.786;2022-11-20T14:07:06;18.38;;;7.50;;
49626;SDS011;35527;54.616;39.786;2022-11-20T14:10:19;17.25;;;6.93;;
49626;SDS011;35527;54.616;39.786;2022-11-20T14:13:25;27.60;;;15.77;;
49626;SDS011;35527;54.616;39.786;2022-11-20T14:16:33;26.33;;;9.00;;
49626;SDS011;35527;54.616;39.786;2022-11-20T14:19:37;29.33;;;16.05;;
49626;SDS011;35527;54.616;39.786;2022-11-20T14:22:50;15.93;;;7.07;;
49626;SDS011;35527;54.616;39.786;2022-11-20T14:25:53;15.88;;;6.57;;
49626;SDS011;35527;54.616;39.786;2022-11-20T14:29:02;25.55;;;15.60;;
49626;SDS011;35527;54.616;39.786;2022-11-20T14:32:05;17.60;;;8.32;;
49626;SDS011;35527;54.616;39.786;2022-11-20T14:35:45;19.23;;;7.93;;
49626;SDS011;35527;54.616;39.786;2022-11-20T14:38:46;19.55;;;7.93;;
49626;SDS011;35527;54.616;39.786;2022-11-20T14:41:52;21.25;;;7.82;;
49626;SDS011;35527;54.616;39.786;2022-11-20T14:44:57;20.80;;;8.00;;
49626;SDS011;35527;54.616;39.786;2022-11-20T14:48:01;14.75;;;6.65;;
49626;SDS011;35527;54.616;39.786;2022-11-20T14:51:04;20.13;;;7.70;;
49626;SDS011;35527;54.616;39.786;2022-11-20T14:54:09;20.48;;;7.75;;
49626;SDS011;35527;54.616;39.786;2022-11-20T15:00:38;20.67;;;8.13;;
49626;SDS011;35527;54.616;39.786;2022-11-20T15:03:41;18.08;;;7.18;;
49626;SDS011;35527;54.616;39.786;2022-11-20T15:06:53;17.92;;;8.00;;
49626;SDS011;35527;54.616;39.786;2022-11-20T15:13:13;21.00;;;7.80;;
49626;SDS011;35527;54.616;39.786;2022-11-20T15:17:01;19.45;;;7.07;;
49626;SDS011;35527;54.616;39.786;2022-11-20T15:20:15;15.02;;;7.47;;
49626;SDS011;35527;54.616;39.786;2022-11-20T15:23:19;27.67;;;16.67;;
49626;SDS011;35527;54.616;39.786;2022-11-20T15:26:24;19.02;;;6.88;;
49626;SDS011;35527;54.616;39.786;2022-11-20T15:29:29;18.00;;;7.00;;
49626;SDS011;35527;54.616;39.786;2022-11-20T15:32:32;19.70;;;7.57;;
49626;SDS011;35527;54.616;39.786;2022-11-20T15:35:35;17.77;;;7.07;;
49626;SDS011;35527;54.616;39.786;2022-11-20T15:38:39;23.05;;;15.75;;
49626;SDS011;35527;54.616;39.786;2022-11-20T15:41:42;16.55;;;7.60;;
49626;SDS011;35527;54.616;39.786;2022-11-20T15:44:49;19.63;;;7.50;;
49626;SDS011;35527;54.616;39.786;2022-11-20T15:48:23;20.85;;;8.00;;
49626;SDS011;35527;54.616;39.786;2022-11-20T15:51:30;18.02;;;7.28;;
49626;SDS011;35527;54.616;39.786;2022-11-20T15:54:42;17.55;;;7.15;;
49626;SDS011;35527;54.616;39.786;2022-11-20T15:57:45;18.52;;;6.90;;
49626;SDS011;35527;54.616;39.786;2022-11-20T16:00:48;20.02;;;7.65;;
49626;SDS011;35527;54.616;39.786;2022-11-20T16:03:51;17.90;;;6.82;;
49626;SDS011;35527;54.616;39.786;2022-11-20T16:06:54;23.75;;;14.75;;
49626;SDS011;35527;54.616;39.786;2022-11-20T16:09:58;13.70;;;6.43;;
49626;SDS011;35527;54.616;39.786;2022-11-20T16:13:02;17.23;;;6.43;;
49626;SDS011;35527;54.616;39.786;2022-11-20T16:16:28;21.30;;;7.32;;
49626;SDS011;35527;54.616;39.786;2022-11-20T16:19:35;14.20;;;6.45;;
49626;SDS011;35527;54.616;39.786;2022-11-20T16:22:41;17.55;;;6.88;;
49626;SDS011;35527;54.616;39.786;2022-11-20T16:25:47;13.05;;;5.07;;
49626;SDS011;35527;54.616;39.786;2022-11-20T16:28:51;17.98;;;7.35;;
49626;SDS011;35527;54.616;39.786;2022-11-20T16:31:56;23.42;;;14.52;;
49626;SDS011;35527;54.616;39.786;2022-11-20T16:35:00;15.90;;;6.60;;
49626;SDS011;35527;54.616;39.786;2022-11-20T16:38:04;27.70;;;16.35;;
49626;SDS011;35527;54.616;39.786;2022-11-20T16:41:07;17.73;;;6.75;;
49626;SDS011;35527;54.616;39.786;2022-11-20T16:44:17;16.35;;;6.38;;
49626;SDS011;35527;54.616;39.786;2022-11-20T16:47:23;19.20;;;6.75;;
49626;SDS011;35527;54.616;39.786;2022-11-20T16:50:26;18.10;;;6.97;;
49626;SDS011;35527;54.616;39.786;2022-11-20T16:53:31;21.77;;;13.82;;
49626;SDS011;35527;54.616;39.786;2022-11-20T16:56:36;17.83;;;6.93;;
49626;SDS011;35527;54.616;39.786;2022-11-20T16:59:41;24.52;;;15.35;;
49626;SDS011;35527;54.616;39.786;2022-11-20T17:02:44;14.70;;;6.82;;
49626;SDS011;35527;54.616;39.786;2022-11-20T17:05:52;22.85;;;14.85;;
49626;SDS011;35527;54.616;39.786;2022-11-20T17:08:56;18.30;;;7.00;;
49626;SDS011;35527;54.616;39.786;2022-11-20T17:12:00;16.67;;;6.50;;
49626;SDS011;35527;54.616;39.786;2022-11-20T17:15:03;17.45;;;6.43;;
49626;SDS011;35527;54.616;39.786;2022-11-20T17:18:07;14.32;;;6.75;;
49626;SDS011;35527;54.616;39.786;2022-11-20T17:21:13;17.95;;;7.95;;
49626;SDS011;35527;54.616;39.786;2022-11-20T17:24:17;16.10;;;7.45;;
49626;SDS011;35527;54.616;39.786;2022-11-20T17:27:21;15.35;;;6.18;;
49626;SDS011;35527;54.616;39.786;2022-11-20T17:30:25;16.85;;;6.95;;
49626;SDS011;35527;54.616;39.786;2022-11-20T17:33:30;14.43;;;6.35;;
49626;SDS011;35527;54.616;39.786;2022-11-20T17:36:34;19.25;;;6.82;;
49626;SDS011;35527;54.616;39.786;2022-11-20T17:39:38;15.60;;;6.15;;
49626;SDS011;35527;54.616;39.786;2022-11-20T17:42:46;16.02;;;7.00;;
49626;SDS011;35527;54.616;39.786;2022-11-20T17:45:52;15.23;;;7.35;;
49626;SDS011;35527;54.616;39.786;2022-11-20T17:49:00;19.00;;;6.25;;
49626;SDS011;35527;54.616;39.786;2022-11-20T17:52:04;18.13;;;7.63;;
49626;SDS011;35527;54.616;39.786;2022-11-20T17:55:08;16.38;;;7.07;;
49626;SDS011;35527;54.616;39.786;2022-11-20T17:58:12;15.73;;;6.32;;
49626;SDS011;35527;54.616;39.786;2022-11-20T18:01:18;14.40;;;6.93;;
49626;SDS011;35527;54.616;39.786;2022-11-20T18:04:21;16.90;;;5.72;;
49626;SDS011;35527;54.616;39.786;2022-11-20T18:07:24;12.98;;;5.78;;
49626;SDS011;35527;54.616;39.786;2022-11-20T18:10:28;17.15;;;7.05;;
49626;SDS011;35527;54.616;39.786;2022-11-20T18:13:34;16.10;;;6.80;;
49626;SDS011;35527;54.616;39.786;2022-11-20T18:17:17;13.95;;;5.65;;
49626;SDS011;35527;54.616;39.786;2022-11-20T18:20:19;16.95;;;7.53;;
49626;SDS011;35527;54.616;39.786;2022-11-20T18:23:56;15.60;;;5.68;;
49626;SDS011;35527;54.616;39.786;2022-11-20T18:26:59;14.45;;;5.78;;
49626;SDS011;35527;54.616;39.786;2022-11-20T18:30:05;12.68;;;6.38;;
49626;SDS011;35527;54.616;39.786;2022-11-20T18:33:12;18.83;;;12.75;;
49626;SDS011;35527;54.616;39.786;2022-11-20T18:36:17;13.32;;;3.90;;
49626;SDS011;35527;54.616;39.786;2022-11-20T18:39:23;13.82;;;5.10;;
49626;SDS011;35527;54.616;39.786;2022-11-20T18:42:26;12.07;;;4.82;;
49626;SDS011;35527;54.616;39.786;2022-11-20T18:45:47;12.27;;;6.18;;
49626;SDS011;35527;54.616;39.786;2022-11-20T18:48:53;14.38;;;5.60;;
49626;SDS011;35527;54.616;39.786;2022-11-20T18:51:59;13.77;;;5.47;;
49626;SDS011;35527;54.616;39.786;2022-11-20T18:55:03;14.90;;;5.53;;
49626;SDS011;35527;54.616;39.786;2022-11-20T18:58:08;13.65;;;6.35;;
49626;SDS011;35527;54.616;39.786;2022-11-20T19:01:12;18.58;;;12.45;;
49626;SDS011;35527;54.616;39.786;2022-11-20T19:04:15;13.63;;;5.67;;
49626;SDS011;35527;54.616;39.786;2022-11-20T19:07:19;13.50;;;5.85;;
49626;SDS011;35527;54.616;39.786;2022-11-20T19:10:23;21.13;;;5.40;;
49626;SDS011;35527;54.616;39.786;2022-11-20T19:13:31;18.25;;;6.88;;
49626;SDS011;35527;54.616;39.786;2022-11-20T19:16:35;18.85;;;6.47;;
49626;SDS011;35527;54.616;39.786;2022-11-20T19:19:39;12.30;;;5.43;;
49626;SDS011;35527;54.616;39.786;2022-11-20T19:22:42;16.10;;;6.50;;
49626;SDS011;35527;54.616;39.786;2022-11-20T19:25:47;18.02;;;11.50;;
49626;SDS011;35527;54.616;39.786;2022-11-20T19:28:54;9.90;;;3.42;;
49626;SDS011;35527;54.616;39.786;2022-11-20T19:31:57;15.50;;;5.85;;
49626;SDS011;35527;54.616;39.786;2022-11-20T19:35:00;13.73;;;6.30;;
49626;SDS011;35527;54.616;39.786;2022-11-20T19:38:02;14.05;;;5.47;;
49626;SDS011;35527;54.616;39.786;2022-11-20T19:41:33;16.13;;;5.80;;
49626;SDS011;35527;54.616;39.786;2022-11-20T19:47:41;14.20;;;4.80;;
49626;SDS011;35527;54.616;39.786;2022-11-20T19:51:17;19.10;;;12.20;;
49626;SDS011;35527;54.616;39.786;2022-11-20T19:54:25;16.92;;;6.22;;
49626;SDS011;35527;54.616;39.786;2022-11-20T19:57:31;16.73;;;6.85;;